createdAt,value
2019-03-30T00:01:53.461Z,68.55
2019-03-30T00:04:19.622Z,68.67
2019-03-30T00:06:45.794Z,68.63
2019-03-30T00:09:12.033Z,68.66
2019-03-30T00:11:38.188Z,68.62
2019-03-30T00:14:04.310Z,68.77
2019-03-30T00:16:30.351Z,68.84
2019-03-30T00:18:56.419Z,69.13
2019-03-30T00:21:22.540Z,69.03
2019-03-30T00:23:48.681Z,69.12
2019-03-30T00:26:14.798Z,69.41
2019-03-30T00:28:41.170Z,69.71
2019-03-30T00:31:07.305Z,69.67
2019-03-30T00:33:37.228Z,69.45
2019-03-30T00:36:03.381Z,69.40
2019-03-30T00:38:29.632Z,69.28
2019-03-30T00:40:55.976Z,69.21
2019-03-30T00:43:22.117Z,69.37
2019-03-30T00:45:48.257Z,69.33
2019-03-30T00:48:14.278Z,69.41
2019-03-30T00:50:40.412Z,69.48
2019-03-30T00:53:06.530Z,69.54
2019-03-30T00:55:32.580Z,69.48
2019-03-30T00:57:58.606Z,69.75
2019-03-30T01:00:24.744Z,69.96
2019-03-30T01:02:50.765Z,70.21
2019-03-30T01:05:16.908Z,70.45
2019-03-30T01:07:43.035Z,70.70
2019-03-30T01:10:09.265Z,70.66
2019-03-30T01:12:35.381Z,70.39
2019-03-30T01:15:02.109Z,70.31
2019-03-30T01:17:28.227Z,70.23
2019-03-30T01:20:02.738Z,70.22
2019-03-30T01:22:22.267Z,70.32
2019-03-30T01:24:48.317Z,70.42
2019-03-30T01:27:14.438Z,70.41
2019-03-30T01:29:40.574Z,70.56
2019-03-30T01:32:06.601Z,70.41
2019-03-30T01:34:32.737Z,70.17
2019-03-30T01:36:58.861Z,70.00
2019-03-30T01:39:24.883Z,69.93
2019-03-30T01:41:50.896Z,69.82
2019-03-30T01:44:17.053Z,69.82
2019-03-30T01:46:43.086Z,70.08
2019-03-30T01:49:09.098Z,69.99
2019-03-30T01:51:35.323Z,70.10
2019-03-30T01:54:01.338Z,70.25
2019-03-30T01:56:27.474Z,70.11
2019-03-30T01:58:53.502Z,70.17
2019-03-30T02:01:19.526Z,70.14
2019-03-30T02:03:45.588Z,70.31
2019-03-30T02:06:11.709Z,70.34
2019-03-30T02:08:37.774Z,70.38
2019-03-30T02:11:03.991Z,70.35
2019-03-30T02:13:30.182Z,70.34
2019-03-30T02:15:56.412Z,70.41
2019-03-30T02:18:27.561Z,70.43
2019-03-30T02:20:53.689Z,70.89
2019-03-30T02:23:19.808Z,71.13
2019-03-30T02:25:45.963Z,71.48
2019-03-30T02:28:12.178Z,71.08
2019-03-30T02:30:38.354Z,70.79
2019-03-30T02:33:05.216Z,70.72
2019-03-30T02:35:31.360Z,70.70
2019-03-30T02:37:57.689Z,70.77
2019-03-30T02:40:23.715Z,70.60
2019-03-30T02:42:49.936Z,70.74
2019-03-30T02:45:16.141Z,70.76
2019-03-30T02:47:42.264Z,70.71
2019-03-30T02:50:08.476Z,70.58
2019-03-30T02:52:34.609Z,70.67
2019-03-30T02:55:00.756Z,70.54
2019-03-30T02:57:26.882Z,70.48
2019-03-30T02:59:53.002Z,70.52
2019-03-30T03:02:19.163Z,70.51
2019-03-30T03:04:45.183Z,70.70
2019-03-30T03:07:11.294Z,70.73
2019-03-30T03:09:37.340Z,70.55
2019-03-30T03:12:03.450Z,70.51
2019-03-30T03:14:29.609Z,70.46
2019-03-30T03:16:55.719Z,70.54
2019-03-30T03:19:21.878Z,70.70
2019-03-30T03:21:48.007Z,70.63
2019-03-30T03:24:14.126Z,70.69
2019-03-30T03:26:40.168Z,70.60
2019-03-30T03:29:06.335Z,70.54
2019-03-30T03:31:35.133Z,70.64
2019-03-30T03:34:01.250Z,70.75
2019-03-30T03:36:27.357Z,70.80
2019-03-30T03:38:54.907Z,70.93
2019-03-30T03:41:21.025Z,70.92
2019-03-30T03:43:47.252Z,70.92
2019-03-30T03:46:13.388Z,71.37
2019-03-30T03:48:39.432Z,71.15
2019-03-30T03:51:05.765Z,71.24
2019-03-30T03:53:34.196Z,71.16
2019-03-30T03:56:00.511Z,71.19
2019-03-30T03:58:30.240Z,71.50
2019-03-30T04:00:56.868Z,71.61
2019-03-30T04:03:24.893Z,71.75
2019-03-30T04:05:54.617Z,71.86
2019-03-30T04:08:24.141Z,72.10
2019-03-30T04:10:51.085Z,71.76
2019-03-30T04:13:17.213Z,71.58
2019-03-30T04:15:43.467Z,71.35
2019-03-30T04:18:09.667Z,71.29
2019-03-30T04:20:35.827Z,71.28
2019-03-30T04:23:01.853Z,71.15
2019-03-30T04:25:27.938Z,71.18
2019-03-30T04:27:54.036Z,71.49
2019-03-30T04:30:20.192Z,71.28
2019-03-30T04:32:46.311Z,71.27
2019-03-30T04:35:12.333Z,71.40
2019-03-30T04:37:38.478Z,71.40
2019-03-30T04:40:04.895Z,71.40
2019-03-30T04:42:30.931Z,71.46
2019-03-30T04:44:57.065Z,71.52
2019-03-30T04:47:23.192Z,71.52
2019-03-30T04:49:49.446Z,71.75
2019-03-30T04:52:15.475Z,72.05
2019-03-30T04:54:41.608Z,72.27
2019-03-30T04:57:07.747Z,72.45
2019-03-30T04:59:33.889Z,72.82
2019-03-30T05:02:00.011Z,72.97
2019-03-30T05:04:26.130Z,72.92
2019-03-30T05:06:52.146Z,72.87
2019-03-30T05:09:18.287Z,72.84
2019-03-30T05:11:44.321Z,73.20
2019-03-30T05:14:10.440Z,73.67
2019-03-30T05:16:36.466Z,74.48
2019-03-30T05:19:02.589Z,74.60
2019-03-30T05:21:28.615Z,74.72
2019-03-30T05:23:54.734Z,75.01
2019-03-30T05:26:20.865Z,75.16
2019-03-30T05:28:46.989Z,75.28
2019-03-30T05:31:13.150Z,75.77
2019-03-30T05:33:39.295Z,76.50
2019-03-30T05:36:05.407Z,76.54
2019-03-30T05:38:31.543Z,77.67
2019-03-30T05:40:57.693Z,77.64
2019-03-30T05:43:23.737Z,77.60
2019-03-30T05:45:49.881Z,78.18
2019-03-30T05:48:15.888Z,78.23
2019-03-30T05:50:42.029Z,79.01
2019-03-30T05:53:08.055Z,79.04
2019-03-30T05:55:34.187Z,78.93
2019-03-30T05:58:00.301Z,79.13
2019-03-30T06:00:26.445Z,79.87
2019-03-30T06:02:54.779Z,80.02
2019-03-30T06:05:20.542Z,79.80
2019-03-30T06:07:46.657Z,80.10
2019-03-30T06:10:12.788Z,80.06
2019-03-30T06:12:38.825Z,80.22
2019-03-30T06:15:06.355Z,79.86
2019-03-30T06:17:32.472Z,79.60
2019-03-30T06:20:00.970Z,79.50
2019-03-30T06:22:39.777Z,79.52
2019-03-30T06:24:55.130Z,79.66
2019-03-30T06:27:21.065Z,80.84
2019-03-30T06:30:19.420Z,81.11
2019-03-30T06:32:45.551Z,81.72
2019-03-30T06:35:11.671Z,81.62
2019-03-30T06:37:37.788Z,81.33
2019-03-30T06:40:04.622Z,81.43
2019-03-30T06:42:30.633Z,81.15
2019-03-30T06:44:56.590Z,80.68
2019-03-30T06:47:22.731Z,80.22
2019-03-30T06:49:48.885Z,80.10
2019-03-30T06:52:15.011Z,79.96
2019-03-30T06:54:41.144Z,79.82
2019-03-30T06:57:07.287Z,79.72
2019-03-30T06:59:33.444Z,79.68
2019-03-30T07:01:59.587Z,79.70
2019-03-30T07:04:25.741Z,80.52
2019-03-30T07:06:51.960Z,80.59
2019-03-30T07:09:21.319Z,81.38
2019-03-30T07:11:48.571Z,80.98
2019-03-30T07:14:14.845Z,82.07
2019-03-30T07:17:05.228Z,81.48
2019-03-30T07:19:34.994Z,81.28
2019-03-30T07:22:01.152Z,81.69
2019-03-30T07:24:27.470Z,81.34
2019-03-30T07:26:53.713Z,81.88
2019-03-30T07:29:20.000Z,82.08
2019-03-30T07:31:49.099Z,81.55
2019-03-30T07:34:15.372Z,81.91
2019-03-30T07:36:43.592Z,81.56
2019-03-30T07:39:09.768Z,81.44
2019-03-30T07:41:35.898Z,81.17
2019-03-30T07:44:04.093Z,81.43
2019-03-30T07:46:30.238Z,81.99
2019-03-30T07:48:56.265Z,81.35
2019-03-30T07:51:22.502Z,81.32
2019-03-30T07:53:48.869Z,81.18
2019-03-30T07:56:15.135Z,80.87
2019-03-30T07:58:41.323Z,80.55
2019-03-30T08:01:07.597Z,80.22
2019-03-30T08:03:33.814Z,80.21
2019-03-30T08:05:59.951Z,79.48
2019-03-30T08:08:26.193Z,78.60
2019-03-30T08:10:52.414Z,78.06
2019-03-30T08:13:18.542Z,77.49
2019-03-30T08:15:44.590Z,76.68
2019-03-30T08:18:10.714Z,75.72
2019-03-30T08:20:36.987Z,75.12
2019-03-30T08:23:03.107Z,74.73
2019-03-30T08:25:29.394Z,74.69
2019-03-30T08:27:55.518Z,73.88
2019-03-30T08:30:21.670Z,72.88
2019-03-30T08:32:47.860Z,72.19
2019-03-30T08:35:14.104Z,71.47
2019-03-30T08:37:40.226Z,70.92
2019-03-30T08:40:06.550Z,69.45
2019-03-30T08:42:32.791Z,69.71
2019-03-30T08:44:59.040Z,69.78
2019-03-30T08:47:25.322Z,69.95
2019-03-30T08:49:51.613Z,69.57
2019-03-30T08:52:20.567Z,68.53
2019-03-30T08:54:46.725Z,68.24
2019-03-30T08:57:12.762Z,68.21
2019-03-30T08:59:38.871Z,67.88
2019-03-30T09:02:04.994Z,67.28
2019-03-30T09:04:31.859Z,66.71
2019-03-30T09:06:57.943Z,66.90
2019-03-30T09:09:24.074Z,66.26
2019-03-30T09:11:50.240Z,65.46
2019-03-30T09:14:16.441Z,65.05
2019-03-30T09:16:42.615Z,64.89
2019-03-30T09:19:09.036Z,65.66
2019-03-30T09:21:35.165Z,63.84
2019-03-30T09:24:09.347Z,63.44
2019-03-30T09:26:29.361Z,63.13
2019-03-30T09:28:55.580Z,62.67
2019-03-30T09:31:21.839Z,61.61
2019-03-30T09:33:48.068Z,61.99
2019-03-30T09:36:14.195Z,61.22
2019-03-30T09:38:40.338Z,61.22
2019-03-30T09:41:06.466Z,61.79
2019-03-30T09:43:32.623Z,60.26
2019-03-30T09:45:58.771Z,58.74
2019-03-30T09:48:24.888Z,59.96
2019-03-30T09:50:51.040Z,58.44
2019-03-30T09:53:17.167Z,59.68
2019-03-30T09:55:43.346Z,59.74
2019-03-30T09:58:09.495Z,60.45
2019-03-30T10:00:35.622Z,59.82
2019-03-30T10:03:01.753Z,59.77
2019-03-30T10:05:27.807Z,57.94
2019-03-30T10:07:53.955Z,55.27
2019-03-30T10:10:20.094Z,55.17
2019-03-30T10:12:46.244Z,54.45
2019-03-30T10:15:12.862Z,53.56
2019-03-30T10:17:39.126Z,53.90
2019-03-30T10:20:08.460Z,54.40
2019-03-30T10:22:34.403Z,53.17
2019-03-30T10:25:00.646Z,50.36
2019-03-30T10:27:26.959Z,49.30
2019-03-30T10:29:54.890Z,48.67
2019-03-30T10:32:21.022Z,48.09
2019-03-30T10:34:47.283Z,48.15
2019-03-30T10:37:13.444Z,46.92
2019-03-30T10:39:39.567Z,46.56
2019-03-30T10:42:05.682Z,44.61
2019-03-30T10:44:31.879Z,44.60
2019-03-30T10:46:58.465Z,45.31
2019-03-30T10:49:24.714Z,45.48
2019-03-30T10:51:54.147Z,45.22
2019-03-30T10:54:18.776Z,44.95
2019-03-30T10:56:45.013Z,44.29
2019-03-30T10:59:11.143Z,44.75
2019-03-30T11:01:37.347Z,43.65
2019-03-30T11:04:03.479Z,45.08
2019-03-30T11:06:29.708Z,45.69
2019-03-30T11:08:55.819Z,46.17
2019-03-30T11:11:21.957Z,44.71
2019-03-30T11:13:48.122Z,42.18
2019-03-30T11:16:20.360Z,41.52
2019-03-30T11:18:42.191Z,38.90
2019-03-30T11:21:08.355Z,38.77
2019-03-30T11:23:34.481Z,37.98
2019-03-30T11:26:00.769Z,39.73
2019-03-30T11:28:26.866Z,38.63
2019-03-30T11:30:52.998Z,38.92
2019-03-30T11:33:19.136Z,38.11
2019-03-30T11:35:45.257Z,38.46
2019-03-30T11:38:11.489Z,36.80
2019-03-30T11:40:37.727Z,37.83
2019-03-30T11:43:03.924Z,37.76
2019-03-30T11:45:30.046Z,36.68
2019-03-30T11:47:56.182Z,34.94
2019-03-30T11:50:22.446Z,32.65
2019-03-30T11:52:48.465Z,32.18
2019-03-30T11:55:21.875Z,31.22
2019-03-30T11:57:42.673Z,31.21
2019-03-30T12:00:12.615Z,29.50
2019-03-30T12:02:38.650Z,30.75
2019-03-30T12:05:06.163Z,31.78
2019-03-30T12:07:33.680Z,32.57
2019-03-30T12:09:59.842Z,34.46
2019-03-30T12:12:26.007Z,34.93
2019-03-30T12:14:52.214Z,34.40
2019-03-30T12:17:18.378Z,34.73
2019-03-30T12:19:44.544Z,33.66
2019-03-30T12:22:10.719Z,33.23
2019-03-30T12:24:36.852Z,33.10
2019-03-30T12:27:03.104Z,31.98
2019-03-30T12:29:29.282Z,31.10
2019-03-30T12:31:55.401Z,32.28
2019-03-30T12:34:21.659Z,30.77
2019-03-30T12:36:47.927Z,29.82
2019-03-30T12:39:14.078Z,29.88
2019-03-30T12:41:42.143Z,31.57
2019-03-30T12:44:08.201Z,32.49
2019-03-30T12:46:34.430Z,31.66
2019-03-30T12:49:00.555Z,30.79
2019-03-30T12:51:26.702Z,30.46
2019-03-30T12:53:52.838Z,32.26
2019-03-30T12:56:25.763Z,31.49
2019-03-30T12:58:53.660Z,31.28
2019-03-30T13:01:19.832Z,30.26
2019-03-30T13:03:45.957Z,30.92
2019-03-30T13:06:12.095Z,30.28
2019-03-30T13:08:38.261Z,30.45
2019-03-30T13:11:04.389Z,30.42
2019-03-30T13:13:30.553Z,30.09
2019-03-30T13:15:56.676Z,29.28
2019-03-30T13:18:22.960Z,29.52
2019-03-30T13:20:50.999Z,28.84
2019-03-30T13:23:17.142Z,30.02
2019-03-30T13:25:43.402Z,29.84
2019-03-30T13:28:13.420Z,29.05
2019-03-30T13:30:39.513Z,30.22
2019-03-30T13:33:05.769Z,30.56
2019-03-30T13:35:31.917Z,30.61
2019-03-30T13:37:58.235Z,30.25
2019-03-30T13:40:24.376Z,29.25
2019-03-30T13:42:50.533Z,28.82
2019-03-30T13:45:23.344Z,28.42
2019-03-30T13:47:47.100Z,28.21
2019-03-30T13:50:15.269Z,28.43
2019-03-30T13:52:41.408Z,27.60
2019-03-30T13:55:07.558Z,27.73
2019-03-30T13:57:33.742Z,28.18
2019-03-30T13:59:59.854Z,28.00
2019-03-30T14:02:26.012Z,27.61
2019-03-30T14:04:52.648Z,28.19
2019-03-30T14:07:18.851Z,29.11
2019-03-30T14:09:45.006Z,28.29
2019-03-30T14:12:11.193Z,28.84
2019-03-30T14:14:37.332Z,29.54
2019-03-30T14:17:03.452Z,29.67
2019-03-30T14:19:31.375Z,29.05
2019-03-30T14:21:57.612Z,28.76
2019-03-30T14:24:23.748Z,28.30
2019-03-30T14:26:49.878Z,29.33
2019-03-30T14:29:16.707Z,29.66
2019-03-30T14:31:42.840Z,29.70
2019-03-30T14:34:08.979Z,29.40
2019-03-30T14:36:35.106Z,28.09
2019-03-30T14:39:01.273Z,27.60
2019-03-30T14:41:27.576Z,27.32
2019-03-30T14:43:54.612Z,27.74
2019-03-30T14:46:20.728Z,27.50
2019-03-30T14:48:46.841Z,28.39
2019-03-30T14:51:12.969Z,28.78
2019-03-30T14:53:39.105Z,29.27
2019-03-30T14:56:05.267Z,29.85
2019-03-30T14:58:31.516Z,29.94
2019-03-30T15:00:57.878Z,31.70
2019-03-30T15:03:24.173Z,32.94
2019-03-30T15:05:50.464Z,33.93
2019-03-30T15:08:16.612Z,34.35
2019-03-30T15:10:42.770Z,36.19
2019-03-30T15:13:08.940Z,36.53
2019-03-30T15:15:35.192Z,37.32
2019-03-30T15:18:01.330Z,36.54
2019-03-30T15:20:27.557Z,37.54
2019-03-30T15:22:53.673Z,37.88
2019-03-30T15:25:19.810Z,37.98
2019-03-30T15:27:45.995Z,38.35
2019-03-30T15:30:12.253Z,38.63
2019-03-30T15:32:38.528Z,38.99
2019-03-30T15:35:06.246Z,38.96
2019-03-30T15:37:32.369Z,38.98
2019-03-30T15:39:58.497Z,39.38
2019-03-30T15:42:26.823Z,39.48
2019-03-30T15:44:52.972Z,38.93
2019-03-30T15:47:19.260Z,39.18
2019-03-30T15:49:45.511Z,39.59
2019-03-30T15:52:14.164Z,40.04
2019-03-30T15:54:39.703Z,39.90
2019-03-30T15:57:13.869Z,40.23
2019-03-30T15:59:34.344Z,39.96
2019-03-30T16:02:00.572Z,40.47
2019-03-30T16:04:26.771Z,40.99
2019-03-30T16:06:52.908Z,41.20
2019-03-30T16:09:19.043Z,41.88
2019-03-30T16:11:45.188Z,42.08
2019-03-30T16:14:11.318Z,42.33
2019-03-30T16:16:37.592Z,42.70
2019-03-30T16:19:03.819Z,43.16
2019-03-30T16:21:29.996Z,43.59
2019-03-30T16:23:56.031Z,44.10
2019-03-30T16:26:22.181Z,44.78
2019-03-30T16:28:48.301Z,45.53
2019-03-30T16:31:14.550Z,46.13
2019-03-30T16:33:40.715Z,46.59
2019-03-30T16:36:08.043Z,46.97
2019-03-30T16:38:34.116Z,47.34
2019-03-30T16:41:00.269Z,48.13
2019-03-30T16:43:26.435Z,48.23
2019-03-30T16:45:52.627Z,48.18
2019-03-30T16:48:18.746Z,48.32
2019-03-30T16:50:44.980Z,48.57
2019-03-30T16:53:11.112Z,49.17
2019-03-30T16:55:37.280Z,49.30
2019-03-30T16:58:03.514Z,49.40
2019-03-30T17:00:32.503Z,49.45
2019-03-30T17:02:58.650Z,49.86
2019-03-30T17:05:24.784Z,49.65
2019-03-30T17:07:51.079Z,49.79
2019-03-30T17:10:18.342Z,50.47
2019-03-30T17:12:44.466Z,51.26
2019-03-30T17:15:10.592Z,51.55
2019-03-30T17:17:36.752Z,51.49
2019-03-30T17:20:06.064Z,51.46
2019-03-30T17:22:32.009Z,51.71
2019-03-30T17:24:58.303Z,52.06
2019-03-30T17:27:24.432Z,52.21
2019-03-30T17:29:50.719Z,52.37
2019-03-30T17:32:16.915Z,52.54
2019-03-30T17:34:43.180Z,52.89
2019-03-30T17:37:09.509Z,53.05
2019-03-30T17:39:35.774Z,53.03
2019-03-30T17:42:02.045Z,53.20
2019-03-30T17:44:28.273Z,53.34
2019-03-30T17:46:54.526Z,53.66
2019-03-30T17:49:20.669Z,54.11
2019-03-30T17:51:46.872Z,54.06
2019-03-30T17:54:13.028Z,54.24
2019-03-30T17:56:39.154Z,54.13
2019-03-30T17:59:05.384Z,54.32
2019-03-30T18:01:31.567Z,54.27
2019-03-30T18:03:58.873Z,54.62
2019-03-30T18:06:25.057Z,54.89
2019-03-30T18:08:51.211Z,55.41
2019-03-30T18:11:17.358Z,55.27
2019-03-30T18:13:43.488Z,55.34
2019-03-30T18:16:09.663Z,55.45
2019-03-30T18:18:35.801Z,55.44
2019-03-30T18:21:01.926Z,55.72
2019-03-30T18:23:30.126Z,56.14
2019-03-30T18:25:56.435Z,56.06
2019-03-30T18:28:27.263Z,56.27
2019-03-30T18:30:50.720Z,56.53
2019-03-30T18:33:16.953Z,56.85
2019-03-30T18:35:43.174Z,56.98
2019-03-30T18:38:12.599Z,56.66
2019-03-30T18:40:37.616Z,57.02
2019-03-30T18:43:03.833Z,57.15
2019-03-30T18:45:30.068Z,57.41
2019-03-30T18:48:52.678Z,57.49
2019-03-30T18:51:20.339Z,57.65
2019-03-30T18:53:47.670Z,57.55
2019-03-30T18:56:14.196Z,57.73
2019-03-30T18:58:41.869Z,57.76
2019-03-30T19:01:08.401Z,57.70
2019-03-30T19:03:34.630Z,57.83
2019-03-30T19:06:01.269Z,58.10
2019-03-30T19:08:27.557Z,58.72
2019-03-30T19:10:53.786Z,58.62
2019-03-30T19:13:19.939Z,59.02
2019-03-30T19:15:46.075Z,59.25
2019-03-30T19:18:14.843Z,59.40
2019-03-30T19:20:40.992Z,59.32
2019-03-30T19:23:07.126Z,59.19
2019-03-30T19:25:33.251Z,59.21
2019-03-30T19:27:59.381Z,59.66
2019-03-30T19:30:26.058Z,59.72
2019-03-30T19:32:52.261Z,60.01
2019-03-30T19:35:18.498Z,60.12
2019-03-30T19:37:44.520Z,60.37
2019-03-30T19:40:10.801Z,60.38
2019-03-30T19:42:36.931Z,60.42
2019-03-30T19:45:06.593Z,60.58
2019-03-30T19:47:32.731Z,60.84
2019-03-30T19:49:58.876Z,61.11
2019-03-30T19:52:38.949Z,61.49
2019-03-30T19:54:53.246Z,61.47
2019-03-30T19:57:19.374Z,61.40
2019-03-30T19:59:45.496Z,62.02
2019-03-30T20:02:11.742Z,61.93
2019-03-30T20:04:37.974Z,61.78
2019-03-30T20:07:04.124Z,61.51
2019-03-30T20:09:32.882Z,61.50
2019-03-30T20:11:59.115Z,61.95
2019-03-30T20:14:25.363Z,61.96
2019-03-30T20:16:51.518Z,62.09
2019-03-30T20:19:17.674Z,62.19
2019-03-30T20:21:43.935Z,62.44
2019-03-30T20:24:10.222Z,62.73
2019-03-30T20:26:36.338Z,63.13
2019-03-30T20:29:03.096Z,62.87
2019-03-30T20:31:29.263Z,62.62
2019-03-30T20:33:55.409Z,62.86
2019-03-30T20:36:21.582Z,63.32
2019-03-30T20:38:47.740Z,63.59
2019-03-30T20:41:13.877Z,63.61
2019-03-30T20:43:40.048Z,63.33
2019-03-30T20:46:10.496Z,63.05
2019-03-30T20:48:36.637Z,63.61
2019-03-30T20:51:02.823Z,63.98
2019-03-30T20:53:28.969Z,63.78
2019-03-30T20:55:55.150Z,63.50
2019-03-30T20:58:21.283Z,63.72
2019-03-30T21:00:47.414Z,63.83
2019-03-30T21:03:13.547Z,64.09
2019-03-30T21:05:39.812Z,64.01
2019-03-30T21:08:05.990Z,64.26
2019-03-30T21:10:32.138Z,64.52
2019-03-30T21:12:58.293Z,64.71
2019-03-30T21:15:24.466Z,64.48
2019-03-30T21:17:50.603Z,64.37
2019-03-30T21:20:16.858Z,64.40
2019-03-30T21:22:43.004Z,64.41
2019-03-30T21:25:09.194Z,64.59
2019-03-30T21:27:35.960Z,64.55
2019-03-30T21:30:05.847Z,64.73
2019-03-30T21:32:31.962Z,65.12
2019-03-30T21:34:58.146Z,65.06
2019-03-30T21:37:24.370Z,65.25
2019-03-30T21:39:50.411Z,65.72
2019-03-30T21:42:16.650Z,65.96
2019-03-30T21:44:42.896Z,65.61
2019-03-30T21:47:10.973Z,65.39
2019-03-30T21:49:37.210Z,65.41
2019-03-30T21:52:03.571Z,65.56
2019-03-30T21:54:29.707Z,65.80
2019-03-30T21:56:55.971Z,65.71
2019-03-30T21:59:22.170Z,65.63
2019-03-30T22:01:48.392Z,65.75
2019-03-30T22:04:14.526Z,65.87
2019-03-30T22:06:40.783Z,66.28
2019-03-30T22:09:07.125Z,66.18
2019-03-30T22:11:33.724Z,66.39
2019-03-30T22:13:59.871Z,66.46
2019-03-30T22:16:25.999Z,66.61
2019-03-30T22:18:53.898Z,66.34
2019-03-30T22:21:20.137Z,66.30
2019-03-30T22:23:46.393Z,66.28
2019-03-30T22:26:12.635Z,66.19
2019-03-30T22:28:38.754Z,65.91
2019-03-30T22:31:04.908Z,66.18
2019-03-30T22:33:31.046Z,66.47
2019-03-30T22:35:57.202Z,66.71
2019-03-30T22:38:23.320Z,66.62
2019-03-30T22:40:52.323Z,66.52
2019-03-30T22:43:18.459Z,66.66
2019-03-30T22:45:44.614Z,66.75
2019-03-30T22:48:10.742Z,67.10
2019-03-30T22:50:36.907Z,67.24
2019-03-30T22:53:03.043Z,67.04
2019-03-30T22:55:29.213Z,67.14
2019-03-30T22:57:55.240Z,66.98
2019-03-30T23:03:17.011Z,67.10
2019-03-30T23:05:43.159Z,67.48
2019-03-30T23:08:09.328Z,67.95
2019-03-30T23:10:35.364Z,68.27
2019-03-30T23:13:01.529Z,68.89
2019-03-30T23:15:27.691Z,68.42
2019-03-30T23:17:53.859Z,68.25
2019-03-30T23:20:19.996Z,68.17
2019-03-30T23:22:46.148Z,68.30
2019-03-30T23:25:12.318Z,68.12
2019-03-30T23:27:38.405Z,68.11
2019-03-30T23:30:05.759Z,67.86
2019-03-30T23:32:31.925Z,67.54
2019-03-30T23:34:58.056Z,67.44
2019-03-30T23:37:24.113Z,67.54
2019-03-30T23:39:50.247Z,67.36
2019-03-30T23:42:16.363Z,67.33
2019-03-30T23:44:42.484Z,67.32
2019-03-30T23:47:08.507Z,67.34
2019-03-30T23:49:36.841Z,67.29
2019-03-30T23:52:02.968Z,67.71
2019-03-30T23:54:29.096Z,67.94
2019-03-30T23:56:55.729Z,67.94
2019-03-30T23:59:21.861Z,68.13
